sensor_id;sensor_type;location;lat;lon;timestamp;P1;durP1;ratioP1;P2;durP2;ratioP2
5279;SDS011;2663;53.588;10.010;2022-12-18T00:01:18;16.33;;;9.20;;
5279;SDS011;2663;53.588;10.010;2022-12-18T00:03:51;18.03;;;8.97;;
5279;SDS011;2663;53.588;10.010;2022-12-18T00:06:19;23.70;;;9.47;;
5279;SDS011;2663;53.588;10.010;2022-12-18T00:08:46;63.20;;;25.23;;
5279;SDS011;2663;53.588;10.010;2022-12-18T00:11:15;35.23;;;16.97;;
5279;SDS011;2663;53.588;10.010;2022-12-18T00:13:44;13.73;;;7.43;;
5279;SDS011;2663;53.588;10.010;2022-12-18T00:16:12;19.20;;;9.13;;
5279;SDS011;2663;53.588;10.010;2022-12-18T00:18:41;16.23;;;10.00;;
5279;SDS011;2663;53.588;10.010;2022-12-18T00:21:09;14.33;;;8.83;;
5279;SDS011;2663;53.588;10.010;2022-12-18T00:23:37;21.00;;;11.17;;
5279;SDS011;2663;53.588;10.010;2022-12-18T00:26:07;18.50;;;9.40;;
5279;SDS011;2663;53.588;10.010;2022-12-18T00:28:36;20.37;;;9.47;;
5279;SDS011;2663;53.588;10.010;2022-12-18T00:31:04;15.20;;;8.90;;
5279;SDS011;2663;53.588;10.010;2022-12-18T00:33:33;18.20;;;10.03;;
5279;SDS011;2663;53.588;10.010;2022-12-18T00:36:03;22.13;;;10.27;;
5279;SDS011;2663;53.588;10.010;2022-12-18T00:38:30;17.10;;;9.87;;
5279;SDS011;2663;53.588;10.010;2022-12-18T00:40:56;15.93;;;9.40;;
5279;SDS011;2663;53.588;10.010;2022-12-18T00:43:23;17.83;;;8.70;;
5279;SDS011;2663;53.588;10.010;2022-12-18T00:45:50;13.53;;;8.67;;
5279;SDS011;2663;53.588;10.010;2022-12-18T00:48:16;17.33;;;9.20;;
5279;SDS011;2663;53.588;10.010;2022-12-18T00:50:43;53.30;;;24.07;;
5279;SDS011;2663;53.588;10.010;2022-12-18T00:53:10;45.20;;;21.67;;
5279;SDS011;2663;53.588;10.010;2022-12-18T00:55:38;28.23;;;12.10;;
5279;SDS011;2663;53.588;10.010;2022-12-18T00:58:05;15.87;;;9.20;;
5279;SDS011;2663;53.588;10.010;2022-12-18T01:00:32;17.13;;;9.50;;
5279;SDS011;2663;53.588;10.010;2022-12-18T01:02:59;14.80;;;8.50;;
5279;SDS011;2663;53.588;10.010;2022-12-18T01:05:26;18.50;;;8.47;;
5279;SDS011;2663;53.588;10.010;2022-12-18T01:07:53;18.60;;;9.00;;
5279;SDS011;2663;53.588;10.010;2022-12-18T01:10:20;18.10;;;8.77;;
5279;SDS011;2663;53.588;10.010;2022-12-18T01:12:48;20.43;;;9.70;;
5279;SDS011;2663;53.588;10.010;2022-12-18T01:15:15;15.10;;;7.50;;
5279;SDS011;2663;53.588;10.010;2022-12-18T01:17:42;15.57;;;7.93;;
5279;SDS011;2663;53.588;10.010;2022-12-18T01:20:10;14.07;;;7.60;;
5279;SDS011;2663;53.588;10.010;2022-12-18T01:22:38;18.73;;;8.07;;
5279;SDS011;2663;53.588;10.010;2022-12-18T01:25:05;14.17;;;7.90;;
5279;SDS011;2663;53.588;10.010;2022-12-18T01:27:33;21.10;;;10.20;;
5279;SDS011;2663;53.588;10.010;2022-12-18T01:30:00;21.80;;;8.10;;
5279;SDS011;2663;53.588;10.010;2022-12-18T01:32:29;43.10;;;18.40;;
5279;SDS011;2663;53.588;10.010;2022-12-18T01:34:56;19.67;;;9.70;;
5279;SDS011;2663;53.588;10.010;2022-12-18T01:37:23;16.53;;;9.10;;
5279;SDS011;2663;53.588;10.010;2022-12-18T01:39:50;17.30;;;7.23;;
5279;SDS011;2663;53.588;10.010;2022-12-18T01:42:20;15.40;;;10.17;;
5279;SDS011;2663;53.588;10.010;2022-12-18T01:44:54;17.30;;;8.60;;
5279;SDS011;2663;53.588;10.010;2022-12-18T01:47:41;18.10;;;9.00;;
5279;SDS011;2663;53.588;10.010;2022-12-18T01:50:22;21.30;;;9.13;;
5279;SDS011;2663;53.588;10.010;2022-12-18T01:53:07;14.33;;;7.73;;
5279;SDS011;2663;53.588;10.010;2022-12-18T01:55:43;16.90;;;8.23;;
5279;SDS011;2663;53.588;10.010;2022-12-18T01:58:14;17.20;;;8.10;;
5279;SDS011;2663;53.588;10.010;2022-12-18T02:00:42;12.83;;;8.37;;
5279;SDS011;2663;53.588;10.010;2022-12-18T02:03:10;17.67;;;8.43;;
5279;SDS011;2663;53.588;10.010;2022-12-18T02:08:19;16.37;;;8.67;;
5279;SDS011;2663;53.588;10.010;2022-12-18T02:11:05;16.17;;;9.80;;
5279;SDS011;2663;53.588;10.010;2022-12-18T02:13:46;35.40;;;14.63;;
5279;SDS011;2663;53.588;10.010;2022-12-18T02:16:47;18.17;;;8.40;;
5279;SDS011;2663;53.588;10.010;2022-12-18T02:23:04;19.90;;;7.80;;
5279;SDS011;2663;53.588;10.010;2022-12-18T02:28:22;13.33;;;8.30;;
5279;SDS011;2663;53.588;10.010;2022-12-18T02:30:51;18.37;;;7.73;;
5279;SDS011;2663;53.588;10.010;2022-12-18T02:33:24;14.20;;;7.90;;
5279;SDS011;2663;53.588;10.010;2022-12-18T02:35:53;11.10;;;6.70;;
5279;SDS011;2663;53.588;10.010;2022-12-18T02:38:22;15.03;;;8.90;;
5279;SDS011;2663;53.588;10.010;2022-12-18T02:40:50;16.40;;;8.77;;
5279;SDS011;2663;53.588;10.010;2022-12-18T02:43:19;16.20;;;7.47;;
5279;SDS011;2663;53.588;10.010;2022-12-18T02:45:46;18.00;;;8.50;;
5279;SDS011;2663;53.588;10.010;2022-12-18T02:48:22;12.93;;;6.33;;
5279;SDS011;2663;53.588;10.010;2022-12-18T02:50:55;14.60;;;7.03;;
5279;SDS011;2663;53.588;10.010;2022-12-18T02:53:43;13.63;;;7.47;;
5279;SDS011;2663;53.588;10.010;2022-12-18T02:56:17;15.60;;;7.77;;
5279;SDS011;2663;53.588;10.010;2022-12-18T02:59:21;10.07;;;6.40;;
5279;SDS011;2663;53.588;10.010;2022-12-18T03:05:14;24.47;;;7.90;;
5279;SDS011;2663;53.588;10.010;2022-12-18T03:07:42;11.67;;;7.47;;
5279;SDS011;2663;53.588;10.010;2022-12-18T03:10:18;9.57;;;6.80;;
5279;SDS011;2663;53.588;10.010;2022-12-18T03:12:54;13.73;;;6.93;;
5279;SDS011;2663;53.588;10.010;2022-12-18T03:15:34;11.10;;;6.60;;
5279;SDS011;2663;53.588;10.010;2022-12-18T03:18:05;14.87;;;6.23;;
5279;SDS011;2663;53.588;10.010;2022-12-18T03:20:37;12.97;;;6.80;;
5279;SDS011;2663;53.588;10.010;2022-12-18T03:23:08;10.57;;;5.80;;
5279;SDS011;2663;53.588;10.010;2022-12-18T03:25:38;12.77;;;7.00;;
5279;SDS011;2663;53.588;10.010;2022-12-18T03:28:09;11.27;;;6.97;;
5279;SDS011;2663;53.588;10.010;2022-12-18T03:30:40;13.80;;;7.23;;
5279;SDS011;2663;53.588;10.010;2022-12-18T03:33:19;10.40;;;6.47;;
5279;SDS011;2663;53.588;10.010;2022-12-18T03:36:00;14.80;;;6.37;;
5279;SDS011;2663;53.588;10.010;2022-12-18T03:38:27;16.10;;;7.03;;
5279;SDS011;2663;53.588;10.010;2022-12-18T03:43:30;9.60;;;5.90;;
5279;SDS011;2663;53.588;10.010;2022-12-18T03:49:11;14.93;;;6.70;;
5279;SDS011;2663;53.588;10.010;2022-12-18T03:52:09;9.60;;;6.37;;
5279;SDS011;2663;53.588;10.010;2022-12-18T03:54:39;10.17;;;6.37;;
5279;SDS011;2663;53.588;10.010;2022-12-18T03:57:13;13.20;;;6.83;;
5279;SDS011;2663;53.588;10.010;2022-12-18T03:59:44;10.87;;;5.80;;
5279;SDS011;2663;53.588;10.010;2022-12-18T04:02:13;12.20;;;6.90;;
5279;SDS011;2663;53.588;10.010;2022-12-18T04:04:43;12.30;;;6.30;;
5279;SDS011;2663;53.588;10.010;2022-12-18T04:07:12;14.03;;;6.50;;
5279;SDS011;2663;53.588;10.010;2022-12-18T04:09:40;18.17;;;6.90;;
5279;SDS011;2663;53.588;10.010;2022-12-18T04:12:08;18.20;;;7.97;;
5279;SDS011;2663;53.588;10.010;2022-12-18T04:14:35;9.17;;;5.93;;
5279;SDS011;2663;53.588;10.010;2022-12-18T04:17:02;14.27;;;6.30;;
5279;SDS011;2663;53.588;10.010;2022-12-18T04:19:29;18.63;;;7.60;;
5279;SDS011;2663;53.588;10.010;2022-12-18T04:21:55;13.23;;;6.70;;
5279;SDS011;2663;53.588;10.010;2022-12-18T04:24:22;9.77;;;6.13;;
5279;SDS011;2663;53.588;10.010;2022-12-18T04:26:49;15.77;;;6.90;;
5279;SDS011;2663;53.588;10.010;2022-12-18T04:29:15;10.73;;;5.70;;
5279;SDS011;2663;53.588;10.010;2022-12-18T04:31:42;8.33;;;6.07;;
5279;SDS011;2663;53.588;10.010;2022-12-18T04:34:09;9.93;;;6.10;;
5279;SDS011;2663;53.588;10.010;2022-12-18T04:36:35;9.97;;;6.33;;
5279;SDS011;2663;53.588;10.010;2022-12-18T04:39:02;17.20;;;6.33;;
5279;SDS011;2663;53.588;10.010;2022-12-18T04:41:29;13.53;;;6.43;;
5279;SDS011;2663;53.588;10.010;2022-12-18T04:43:55;9.07;;;5.97;;
5279;SDS011;2663;53.588;10.010;2022-12-18T04:46:22;16.03;;;6.57;;
5279;SDS011;2663;53.588;10.010;2022-12-18T04:48:49;13.00;;;5.93;;
5279;SDS011;2663;53.588;10.010;2022-12-18T04:51:15;12.63;;;6.37;;
5279;SDS011;2663;53.588;10.010;2022-12-18T04:53:48;18.90;;;7.40;;
5279;SDS011;2663;53.588;10.010;2022-12-18T04:56:15;14.73;;;6.57;;
5279;SDS011;2663;53.588;10.010;2022-12-18T04:58:43;29.80;;;11.80;;
5279;SDS011;2663;53.588;10.010;2022-12-18T05:01:11;12.47;;;6.27;;
5279;SDS011;2663;53.588;10.010;2022-12-18T05:03:39;11.73;;;6.93;;
5279;SDS011;2663;53.588;10.010;2022-12-18T05:06:07;10.70;;;6.87;;
5279;SDS011;2663;53.588;10.010;2022-12-18T05:08:33;11.87;;;6.77;;
5279;SDS011;2663;53.588;10.010;2022-12-18T05:11:07;8.80;;;5.63;;
5279;SDS011;2663;53.588;10.010;2022-12-18T05:13:36;11.23;;;7.23;;
5279;SDS011;2663;53.588;10.010;2022-12-18T05:16:04;8.07;;;5.50;;
5279;SDS011;2663;53.588;10.010;2022-12-18T05:18:32;12.90;;;6.07;;
5279;SDS011;2663;53.588;10.010;2022-12-18T05:20:58;11.93;;;6.60;;
5279;SDS011;2663;53.588;10.010;2022-12-18T05:23:25;12.73;;;5.80;;
5279;SDS011;2663;53.588;10.010;2022-12-18T05:25:56;25.87;;;6.60;;
5279;SDS011;2663;53.588;10.010;2022-12-18T05:28:25;9.00;;;5.80;;
5279;SDS011;2663;53.588;10.010;2022-12-18T05:30:57;9.10;;;6.00;;
5279;SDS011;2663;53.588;10.010;2022-12-18T05:33:26;8.47;;;6.00;;
5279;SDS011;2663;53.588;10.010;2022-12-18T05:35:55;10.57;;;6.57;;
5279;SDS011;2663;53.588;10.010;2022-12-18T05:38:24;13.60;;;5.77;;
5279;SDS011;2663;53.588;10.010;2022-12-18T05:40:52;8.80;;;6.10;;
5279;SDS011;2663;53.588;10.010;2022-12-18T05:43:22;11.33;;;6.40;;
5279;SDS011;2663;53.588;10.010;2022-12-18T05:45:50;16.33;;;6.30;;
5279;SDS011;2663;53.588;10.010;2022-12-18T05:48:17;11.80;;;6.63;;
5279;SDS011;2663;53.588;10.010;2022-12-18T05:50:45;10.10;;;6.10;;
5279;SDS011;2663;53.588;10.010;2022-12-18T05:53:13;14.53;;;6.00;;
5279;SDS011;2663;53.588;10.010;2022-12-18T05:55:41;8.53;;;5.83;;
5279;SDS011;2663;53.588;10.010;2022-12-18T05:58:09;13.80;;;6.13;;
5279;SDS011;2663;53.588;10.010;2022-12-18T06:00:37;10.40;;;5.70;;
5279;SDS011;2663;53.588;10.010;2022-12-18T06:03:09;12.83;;;6.13;;
5279;SDS011;2663;53.588;10.010;2022-12-18T06:05:39;10.17;;;6.30;;
5279;SDS011;2663;53.588;10.010;2022-12-18T06:08:07;10.33;;;5.77;;
5279;SDS011;2663;53.588;10.010;2022-12-18T06:10:34;18.57;;;7.13;;
5279;SDS011;2663;53.588;10.010;2022-12-18T06:13:01;12.37;;;5.63;;
5279;SDS011;2663;53.588;10.010;2022-12-18T06:15:28;10.33;;;6.20;;
5279;SDS011;2663;53.588;10.010;2022-12-18T06:17:55;11.13;;;5.87;;
5279;SDS011;2663;53.588;10.010;2022-12-18T06:20:21;11.53;;;6.33;;
5279;SDS011;2663;53.588;10.010;2022-12-18T06:22:48;10.63;;;6.60;;
5279;SDS011;2663;53.588;10.010;2022-12-18T06:25:15;19.03;;;6.87;;
5279;SDS011;2663;53.588;10.010;2022-12-18T06:27:42;12.93;;;7.43;;
5279;SDS011;2663;53.588;10.010;2022-12-18T06:30:09;6.20;;;5.10;;
5279;SDS011;2663;53.588;10.010;2022-12-18T06:32:37;13.70;;;7.10;;
5279;SDS011;2663;53.588;10.010;2022-12-18T06:35:04;10.60;;;6.10;;
5279;SDS011;2663;53.588;10.010;2022-12-18T06:37:31;16.70;;;7.10;;
5279;SDS011;2663;53.588;10.010;2022-12-18T06:39:58;9.57;;;6.30;;
5279;SDS011;2663;53.588;10.010;2022-12-18T06:42:25;11.60;;;6.70;;
5279;SDS011;2663;53.588;10.010;2022-12-18T06:44:51;13.20;;;6.27;;
5279;SDS011;2663;53.588;10.010;2022-12-18T06:47:18;9.17;;;6.60;;
5279;SDS011;2663;53.588;10.010;2022-12-18T06:49:45;13.67;;;7.10;;
5279;SDS011;2663;53.588;10.010;2022-12-18T06:52:11;13.50;;;6.97;;
5279;SDS011;2663;53.588;10.010;2022-12-18T06:54:38;10.57;;;7.47;;
5279;SDS011;2663;53.588;10.010;2022-12-18T06:57:05;11.80;;;6.07;;
5279;SDS011;2663;53.588;10.010;2022-12-18T06:59:31;11.20;;;6.50;;
5279;SDS011;2663;53.588;10.010;2022-12-18T07:01:58;11.80;;;6.33;;
5279;SDS011;2663;53.588;10.010;2022-12-18T07:04:29;12.90;;;7.20;;
5279;SDS011;2663;53.588;10.010;2022-12-18T07:06:56;11.07;;;6.90;;
5279;SDS011;2663;53.588;10.010;2022-12-18T07:09:23;10.23;;;6.70;;
5279;SDS011;2663;53.588;10.010;2022-12-18T07:11:51;15.23;;;7.40;;
5279;SDS011;2663;53.588;10.010;2022-12-18T07:14:18;18.23;;;7.40;;
5279;SDS011;2663;53.588;10.010;2022-12-18T07:16:45;14.63;;;6.80;;
5279;SDS011;2663;53.588;10.010;2022-12-18T07:19:12;11.10;;;6.40;;
5279;SDS011;2663;53.588;10.010;2022-12-18T07:21:39;13.83;;;7.17;;
5279;SDS011;2663;53.588;10.010;2022-12-18T07:24:06;10.97;;;6.30;;
5279;SDS011;2663;53.588;10.010;2022-12-18T07:26:33;10.97;;;6.43;;
5279;SDS011;2663;53.588;10.010;2022-12-18T07:28:59;20.10;;;7.90;;
5279;SDS011;2663;53.588;10.010;2022-12-18T07:31:26;14.50;;;7.63;;
5279;SDS011;2663;53.588;10.010;2022-12-18T07:33:53;15.73;;;8.63;;
5279;SDS011;2663;53.588;10.010;2022-12-18T07:36:20;11.23;;;6.97;;
5279;SDS011;2663;53.588;10.010;2022-12-18T07:38:50;15.90;;;6.87;;
5279;SDS011;2663;53.588;10.010;2022-12-18T07:41:18;14.23;;;7.30;;
5279;SDS011;2663;53.588;10.010;2022-12-18T07:43:46;13.07;;;6.40;;
5279;SDS011;2663;53.588;10.010;2022-12-18T07:46:13;18.70;;;7.13;;
5279;SDS011;2663;53.588;10.010;2022-12-18T07:48:42;9.47;;;6.47;;
5279;SDS011;2663;53.588;10.010;2022-12-18T07:51:14;17.97;;;8.20;;
5279;SDS011;2663;53.588;10.010;2022-12-18T07:53:42;11.37;;;6.97;;
5279;SDS011;2663;53.588;10.010;2022-12-18T07:56:09;10.60;;;6.73;;
5279;SDS011;2663;53.588;10.010;2022-12-18T07:58:55;12.90;;;6.80;;
5279;SDS011;2663;53.588;10.010;2022-12-18T08:01:22;17.00;;;7.30;;
5279;SDS011;2663;53.588;10.010;2022-12-18T08:03:49;13.77;;;7.03;;
5279;SDS011;2663;53.588;10.010;2022-12-18T08:06:17;9.50;;;6.40;;
5279;SDS011;2663;53.588;10.010;2022-12-18T08:08:47;27.47;;;6.30;;
5279;SDS011;2663;53.588;10.010;2022-12-18T08:11:15;14.00;;;6.83;;
5279;SDS011;2663;53.588;10.010;2022-12-18T08:13:41;13.97;;;7.40;;
5279;SDS011;2663;53.588;10.010;2022-12-18T08:16:08;16.40;;;8.30;;
5279;SDS011;2663;53.588;10.010;2022-12-18T08:18:36;14.57;;;7.07;;
5279;SDS011;2663;53.588;10.010;2022-12-18T08:21:16;17.17;;;7.90;;
5279;SDS011;2663;53.588;10.010;2022-12-18T08:23:49;15.43;;;8.83;;
5279;SDS011;2663;53.588;10.010;2022-12-18T08:26:18;15.03;;;7.50;;
5279;SDS011;2663;53.588;10.010;2022-12-18T08:28:47;13.43;;;7.40;;
5279;SDS011;2663;53.588;10.010;2022-12-18T08:31:15;14.67;;;7.30;;
5279;SDS011;2663;53.588;10.010;2022-12-18T08:33:42;14.67;;;7.70;;
5279;SDS011;2663;53.588;10.010;2022-12-18T08:36:09;14.40;;;7.80;;
5279;SDS011;2663;53.588;10.010;2022-12-18T08:38:36;15.10;;;7.70;;
5279;SDS011;2663;53.588;10.010;2022-12-18T08:41:07;11.23;;;7.10;;
5279;SDS011;2663;53.588;10.010;2022-12-18T08:43:36;11.27;;;7.73;;
5279;SDS011;2663;53.588;10.010;2022-12-18T08:46:23;14.37;;;7.77;;
5279;SDS011;2663;53.588;10.010;2022-12-18T08:48:51;17.50;;;8.47;;
5279;SDS011;2663;53.588;10.010;2022-12-18T08:51:19;12.73;;;8.03;;
5279;SDS011;2663;53.588;10.010;2022-12-18T08:53:46;16.20;;;8.47;;
5279;SDS011;2663;53.588;10.010;2022-12-18T08:56:13;20.03;;;8.87;;
5279;SDS011;2663;53.588;10.010;2022-12-18T08:58:41;17.53;;;7.97;;
5279;SDS011;2663;53.588;10.010;2022-12-18T09:01:09;22.90;;;7.53;;
5279;SDS011;2663;53.588;10.010;2022-12-18T09:03:37;18.70;;;8.60;;
5279;SDS011;2663;53.588;10.010;2022-12-18T09:06:05;14.63;;;7.67;;
5279;SDS011;2663;53.588;10.010;2022-12-18T09:08:32;14.70;;;8.30;;
5279;SDS011;2663;53.588;10.010;2022-12-18T09:10:59;19.87;;;8.80;;
5279;SDS011;2663;53.588;10.010;2022-12-18T09:13:26;17.13;;;7.80;;
5279;SDS011;2663;53.588;10.010;2022-12-18T09:15:53;15.17;;;8.40;;
5279;SDS011;2663;53.588;10.010;2022-12-18T09:18:22;14.03;;;8.10;;
5279;SDS011;2663;53.588;10.010;2022-12-18T09:20:49;17.27;;;8.17;;
5279;SDS011;2663;53.588;10.010;2022-12-18T09:23:18;12.57;;;7.37;;
5279;SDS011;2663;53.588;10.010;2022-12-18T09:25:45;16.40;;;8.57;;
5279;SDS011;2663;53.588;10.010;2022-12-18T09:28:13;14.63;;;7.70;;
5279;SDS011;2663;53.588;10.010;2022-12-18T09:30:43;20.50;;;8.30;;
5279;SDS011;2663;53.588;10.010;2022-12-18T09:33:13;16.63;;;8.37;;
5279;SDS011;2663;53.588;10.010;2022-12-18T09:35:40;18.07;;;9.20;;
5279;SDS011;2663;53.588;10.010;2022-12-18T09:38:08;16.70;;;9.00;;
5279;SDS011;2663;53.588;10.010;2022-12-18T09:40:47;15.07;;;8.37;;
5279;SDS011;2663;53.588;10.010;2022-12-18T09:45:47;13.20;;;7.73;;
5279;SDS011;2663;53.588;10.010;2022-12-18T09:48:19;15.37;;;8.27;;
5279;SDS011;2663;53.588;10.010;2022-12-18T09:50:52;19.37;;;8.10;;
5279;SDS011;2663;53.588;10.010;2022-12-18T09:53:26;15.60;;;8.03;;
5279;SDS011;2663;53.588;10.010;2022-12-18T09:55:57;17.50;;;8.43;;
5279;SDS011;2663;53.588;10.010;2022-12-18T10:00:57;13.00;;;7.23;;
5279;SDS011;2663;53.588;10.010;2022-12-18T10:03:24;15.40;;;8.20;;
5279;SDS011;2663;53.588;10.010;2022-12-18T10:06:02;16.77;;;9.10;;
5279;SDS011;2663;53.588;10.010;2022-12-18T10:08:42;12.40;;;7.53;;
5279;SDS011;2663;53.588;10.010;2022-12-18T10:14:09;12.47;;;7.50;;
5279;SDS011;2663;53.588;10.010;2022-12-18T10:17:02;14.80;;;7.83;;
5279;SDS011;2663;53.588;10.010;2022-12-18T10:19:46;12.77;;;6.63;;
5279;SDS011;2663;53.588;10.010;2022-12-18T10:27:41;25.47;;;8.70;;
5279;SDS011;2663;53.588;10.010;2022-12-18T10:30:18;17.27;;;8.40;;
5279;SDS011;2663;53.588;10.010;2022-12-18T10:32:47;14.00;;;8.50;;
5279;SDS011;2663;53.588;10.010;2022-12-18T10:35:24;19.20;;;9.00;;
5279;SDS011;2663;53.588;10.010;2022-12-18T10:38:06;15.03;;;8.40;;
5279;SDS011;2663;53.588;10.010;2022-12-18T10:40:42;16.37;;;7.70;;
5279;SDS011;2663;53.588;10.010;2022-12-18T10:43:24;14.73;;;8.57;;
5279;SDS011;2663;53.588;10.010;2022-12-18T10:45:58;15.00;;;8.00;;
5279;SDS011;2663;53.588;10.010;2022-12-18T10:48:27;11.00;;;7.10;;
5279;SDS011;2663;53.588;10.010;2022-12-18T10:50:54;17.47;;;8.30;;
5279;SDS011;2663;53.588;10.010;2022-12-18T10:53:39;16.63;;;7.80;;
5279;SDS011;2663;53.588;10.010;2022-12-18T10:56:07;14.70;;;7.53;;
5279;SDS011;2663;53.588;10.010;2022-12-18T10:58:35;14.10;;;7.23;;
5279;SDS011;2663;53.588;10.010;2022-12-18T11:01:11;17.50;;;8.77;;
5279;SDS011;2663;53.588;10.010;2022-12-18T11:06:14;12.10;;;7.33;;
5279;SDS011;2663;53.588;10.010;2022-12-18T11:08:57;21.73;;;8.53;;
5279;SDS011;2663;53.588;10.010;2022-12-18T11:11:25;13.17;;;7.80;;
5279;SDS011;2663;53.588;10.010;2022-12-18T11:14:03;13.67;;;7.90;;
5279;SDS011;2663;53.588;10.010;2022-12-18T11:16:44;14.60;;;7.60;;
5279;SDS011;2663;53.588;10.010;2022-12-18T11:19:37;18.17;;;8.87;;
5279;SDS011;2663;53.588;10.010;2022-12-18T11:25:04;10.60;;;7.57;;
5279;SDS011;2663;53.588;10.010;2022-12-18T11:28:02;18.07;;;8.90;;
5279;SDS011;2663;53.588;10.010;2022-12-18T11:30:31;13.57;;;8.30;;
5279;SDS011;2663;53.588;10.010;2022-12-18T11:33:08;17.80;;;8.10;;
5279;SDS011;2663;53.588;10.010;2022-12-18T11:35:44;19.23;;;8.40;;
5279;SDS011;2663;53.588;10.010;2022-12-18T11:38:24;16.10;;;8.20;;
5279;SDS011;2663;53.588;10.010;2022-12-18T11:40:53;16.83;;;9.27;;
5279;SDS011;2663;53.588;10.010;2022-12-18T11:43:48;14.07;;;8.10;;
5279;SDS011;2663;53.588;10.010;2022-12-18T11:46:24;14.50;;;8.03;;
5279;SDS011;2663;53.588;10.010;2022-12-18T11:49:20;15.90;;;8.00;;
5279;SDS011;2663;53.588;10.010;2022-12-18T11:52:24;12.60;;;7.63;;
5279;SDS011;2663;53.588;10.010;2022-12-18T11:54:58;16.70;;;9.67;;
5279;SDS011;2663;53.588;10.010;2022-12-18T11:57:52;17.83;;;9.20;;
5279;SDS011;2663;53.588;10.010;2022-12-18T12:00:47;18.67;;;9.57;;
5279;SDS011;2663;53.588;10.010;2022-12-18T12:03:27;19.23;;;10.10;;
5279;SDS011;2663;53.588;10.010;2022-12-18T12:06:10;23.60;;;12.43;;
5279;SDS011;2663;53.588;10.010;2022-12-18T12:09:08;21.67;;;10.20;;
5279;SDS011;2663;53.588;10.010;2022-12-18T12:17:33;19.27;;;9.80;;
5279;SDS011;2663;53.588;10.010;2022-12-18T12:23:35;15.80;;;8.83;;
5279;SDS011;2663;53.588;10.010;2022-12-18T12:26:05;19.83;;;9.03;;
5279;SDS011;2663;53.588;10.010;2022-12-18T12:28:47;17.20;;;9.07;;
5279;SDS011;2663;53.588;10.010;2022-12-18T12:31:41;13.13;;;7.57;;
5279;SDS011;2663;53.588;10.010;2022-12-18T12:34:41;20.97;;;9.53;;
5279;SDS011;2663;53.588;10.010;2022-12-18T12:37:42;16.30;;;8.90;;
5279;SDS011;2663;53.588;10.010;2022-12-18T12:40:24;19.27;;;9.53;;
5279;SDS011;2663;53.588;10.010;2022-12-18T12:51:07;23.17;;;9.40;;
5279;SDS011;2663;53.588;10.010;2022-12-18T12:53:44;21.43;;;9.80;;
5279;SDS011;2663;53.588;10.010;2022-12-18T12:56:13;19.20;;;10.37;;
5279;SDS011;2663;53.588;10.010;2022-12-18T12:58:45;18.40;;;9.47;;
5279;SDS011;2663;53.588;10.010;2022-12-18T13:01:41;47.67;;;18.63;;
5279;SDS011;2663;53.588;10.010;2022-12-18T13:07:12;21.00;;;8.90;;
5279;SDS011;2663;53.588;10.010;2022-12-18T13:12:55;19.70;;;10.17;;
5279;SDS011;2663;53.588;10.010;2022-12-18T13:16:07;19.33;;;9.20;;
5279;SDS011;2663;53.588;10.010;2022-12-18T13:18:34;22.63;;;10.30;;
5279;SDS011;2663;53.588;10.010;2022-12-18T13:21:04;21.67;;;10.67;;
5279;SDS011;2663;53.588;10.010;2022-12-18T13:23:44;19.00;;;9.37;;
5279;SDS011;2663;53.588;10.010;2022-12-18T13:28:53;19.40;;;10.27;;
5279;SDS011;2663;53.588;10.010;2022-12-18T13:31:57;37.63;;;9.90;;
5279;SDS011;2663;53.588;10.010;2022-12-18T13:34:21;32.23;;;10.13;;
5279;SDS011;2663;53.588;10.010;2022-12-18T13:36:52;27.53;;;10.23;;
5279;SDS011;2663;53.588;10.010;2022-12-18T13:39:22;23.73;;;10.17;;
5279;SDS011;2663;53.588;10.010;2022-12-18T13:44:32;21.70;;;10.10;;
5279;SDS011;2663;53.588;10.010;2022-12-18T13:49:59;20.27;;;10.33;;
5279;SDS011;2663;53.588;10.010;2022-12-18T13:52:27;23.00;;;9.50;;
5279;SDS011;2663;53.588;10.010;2022-12-18T13:55:00;20.23;;;10.40;;
5279;SDS011;2663;53.588;10.010;2022-12-18T13:57:32;31.93;;;10.20;;
5279;SDS011;2663;53.588;10.010;2022-12-18T14:00:23;22.43;;;10.50;;
5279;SDS011;2663;53.588;10.010;2022-12-18T14:02:51;22.60;;;10.43;;
5279;SDS011;2663;53.588;10.010;2022-12-18T14:07:51;29.87;;;10.10;;
5279;SDS011;2663;53.588;10.010;2022-12-18T14:10:20;43.77;;;10.50;;
5279;SDS011;2663;53.588;10.010;2022-12-18T14:13:08;21.77;;;10.83;;
5279;SDS011;2663;53.588;10.010;2022-12-18T14:15:44;24.57;;;11.10;;
5279;SDS011;2663;53.588;10.010;2022-12-18T14:18:24;29.20;;;10.93;;
5279;SDS011;2663;53.588;10.010;2022-12-18T14:20:56;24.60;;;10.33;;
5279;SDS011;2663;53.588;10.010;2022-12-18T14:23:27;23.00;;;10.50;;
5279;SDS011;2663;53.588;10.010;2022-12-18T14:26:02;26.90;;;10.67;;
5279;SDS011;2663;53.588;10.010;2022-12-18T14:28:45;27.30;;;9.93;;
5279;SDS011;2663;53.588;10.010;2022-12-18T14:31:20;25.73;;;10.33;;
5279;SDS011;2663;53.588;10.010;2022-12-18T14:33:49;26.33;;;11.40;;
5279;SDS011;2663;53.588;10.010;2022-12-18T14:36:17;23.83;;;10.83;;
5279;SDS011;2663;53.588;10.010;2022-12-18T14:38:52;25.57;;;11.90;;
5279;SDS011;2663;53.588;10.010;2022-12-18T14:41:20;24.97;;;10.70;;
5279;SDS011;2663;53.588;10.010;2022-12-18T14:43:49;24.80;;;11.30;;
5279;SDS011;2663;53.588;10.010;2022-12-18T14:49:01;29.43;;;11.93;;
5279;SDS011;2663;53.588;10.010;2022-12-18T14:51:55;30.67;;;12.60;;
5279;SDS011;2663;53.588;10.010;2022-12-18T14:54:27;27.77;;;11.87;;
5279;SDS011;2663;53.588;10.010;2022-12-18T14:56:58;24.13;;;11.40;;
5279;SDS011;2663;53.588;10.010;2022-12-18T14:59:28;26.67;;;11.20;;
5279;SDS011;2663;53.588;10.010;2022-12-18T15:01:58;29.07;;;13.07;;
5279;SDS011;2663;53.588;10.010;2022-12-18T15:04:44;25.80;;;11.50;;
5279;SDS011;2663;53.588;10.010;2022-12-18T15:07:16;28.70;;;10.77;;
5279;SDS011;2663;53.588;10.010;2022-12-18T15:10:01;30.67;;;11.97;;
5279;SDS011;2663;53.588;10.010;2022-12-18T15:23:17;24.67;;;10.80;;
5279;SDS011;2663;53.588;10.010;2022-12-18T15:26:01;29.67;;;12.13;;
5279;SDS011;2663;53.588;10.010;2022-12-18T15:31:23;34.23;;;12.30;;
5279;SDS011;2663;53.588;10.010;2022-12-18T15:36:22;29.77;;;11.80;;
5279;SDS011;2663;53.588;10.010;2022-12-18T15:38:53;29.57;;;12.83;;
5279;SDS011;2663;53.588;10.010;2022-12-18T15:41:30;26.37;;;11.20;;
5279;SDS011;2663;53.588;10.010;2022-12-18T15:44:01;30.80;;;10.73;;
5279;SDS011;2663;53.588;10.010;2022-12-18T15:46:29;21.03;;;10.20;;
5279;SDS011;2663;53.588;10.010;2022-12-18T15:48:57;25.33;;;12.10;;
5279;SDS011;2663;53.588;10.010;2022-12-18T15:51:46;28.50;;;12.07;;
5279;SDS011;2663;53.588;10.010;2022-12-18T15:54:18;29.90;;;11.77;;
5279;SDS011;2663;53.588;10.010;2022-12-18T15:57:07;31.60;;;11.67;;
5279;SDS011;2663;53.588;10.010;2022-12-18T15:59:50;24.37;;;11.80;;
5279;SDS011;2663;53.588;10.010;2022-12-18T16:02:22;24.57;;;11.33;;
5279;SDS011;2663;53.588;10.010;2022-12-18T16:04:50;29.80;;;13.67;;
5279;SDS011;2663;53.588;10.010;2022-12-18T16:07:18;27.93;;;10.90;;
5279;SDS011;2663;53.588;10.010;2022-12-18T16:09:50;30.67;;;14.90;;
5279;SDS011;2663;53.588;10.010;2022-12-18T16:12:18;27.37;;;11.87;;
5279;SDS011;2663;53.588;10.010;2022-12-18T16:14:48;27.47;;;11.50;;
5279;SDS011;2663;53.588;10.010;2022-12-18T16:17:14;30.43;;;12.00;;
5279;SDS011;2663;53.588;10.010;2022-12-18T16:19:41;25.30;;;10.80;;
5279;SDS011;2663;53.588;10.010;2022-12-18T16:22:15;24.87;;;11.17;;
5279;SDS011;2663;53.588;10.010;2022-12-18T16:24:54;29.60;;;11.63;;
5279;SDS011;2663;53.588;10.010;2022-12-18T16:27:22;31.07;;;11.57;;
5279;SDS011;2663;53.588;10.010;2022-12-18T16:29:50;25.80;;;12.17;;
5279;SDS011;2663;53.588;10.010;2022-12-18T16:32:18;31.20;;;11.50;;
5279;SDS011;2663;53.588;10.010;2022-12-18T16:34:47;25.23;;;11.60;;
5279;SDS011;2663;53.588;10.010;2022-12-18T16:37:14;30.93;;;12.40;;
5279;SDS011;2663;53.588;10.010;2022-12-18T16:39:42;22.63;;;10.17;;
5279;SDS011;2663;53.588;10.010;2022-12-18T16:42:13;29.83;;;12.83;;
5279;SDS011;2663;53.588;10.010;2022-12-18T16:44:46;32.40;;;11.87;;